• Join FlightAware (Why Join?)
  • Login
  • US Flag 
07:02PM EST


 

Airport Tracker/Info


-or-


 

Live Flight TrackerFlight Track Log ✈ USC142 ✈ 10-Jul-2013 ✈ KBED - KPSM

Flight Track Log - Related Links

Times and Time Zones

All times are in EDT time to prevent confusion due to time zone crossing. See the USC142 flight status page for this flight to view local times or setup timezone preferences in your user account.

Time Position Orientation Groundspeed Altitude Reporting Facility
EDT Latitude Longitude Course Direction KTS MPH feet Rate Location/Type
09:56PM 42.4833 -71.3167 270° West 122 140 1,200  Level KA90
09:56PM 42.4833 -71.3333 270° West 108 124 1,800 960 Climbing KA90
09:58PM 42.5167 -71.3333 360° North 153 176 3,000 540 Climbing KA90
09:58PM 42.5500 -71.3000 36° Northeast 178 205 3,000  Level KA90
09:59PM 42.6000 -71.2667 26° Northeast 190 219 3,000  Level KA90
10:00PM 42.6333 -71.2333 36° Northeast 196 226 3,000  Level KA90
10:02PM 42.6833 -71.1833 36° Northeast 199 229 3,000  Level KA90
10:02PM 42.7167 -71.1333 48° Northeast 203 234 3,000  Level KA90
10:03PM 42.7333 -71.0667 71° East 204 235 3,000  Level KA90
10:04PM 42.7667 -70.9833 61° Northeast 202 232 3,000  Level KA90
10:05PM 42.8000 -70.9333 48° Northeast 204 235 3,000  Level KA90
10:06PM 42.8167 -70.8667 71° East 189 217 3,000  Level KA90
10:07PM 42.8500 -70.8167 48° Northeast 179 206 3,000 -120 Level KA90
10:08PM 42.8833 -70.7667 48° Northeast 172 198 2,800 -480 Descending KA90
10:09PM 42.9333 -70.7167 36° Northeast 165 190 2,000 -420 Descending KA90
10:10PM 42.9667 -70.7333 340° North 133 153 2,000 -120 Level KA90
10:11PM 42.9833 -70.7500 324° Northwest 127 146 1,800 -420 Descending KA90
10:12PM 43.0167 -70.7667 340° North 120 138 1,300 -660 Descending KA90
10:13PM 43.0500 -70.8000 324° Northwest 116 133 500 -720 Descending KA90
10:15PM 43.0667 -70.8167 331° Northwest  Level FlightAware Approximate
10:22PM 43.0779 -70.8233 331° Northwest  Level Estimated